sensor_id;sensor_type;location;lat;lon;timestamp;pressure;altitude;pressure_sealevel;temperature;humidity
37610;BME280;23457;51.966;8.230;2023-04-25T08:13:14;100498.88;;;7.74;91.77
37610;BME280;23457;51.966;8.230;2023-04-25T08:15:41;100507.94;;;7.91;90.28
37610;BME280;23457;51.966;8.230;2023-04-25T08:18:08;100514.19;;;8.01;86.73
37610;BME280;23457;51.966;8.230;2023-04-25T08:20:35;100507.97;;;7.93;88.05
37610;BME280;23457;51.966;8.230;2023-04-25T08:23:05;100517.84;;;8.47;84.33
37610;BME280;23457;51.966;8.230;2023-04-25T08:26:45;100519.63;;;8.51;81.93
37610;BME280;23457;51.966;8.230;2023-04-25T08:29:15;100518.53;;;8.02;80.98
37610;BME280;23457;51.966;8.230;2023-04-25T08:31:43;100529.69;;;8.36;84.11
37610;BME280;23457;51.966;8.230;2023-04-25T08:34:10;100534.47;;;8.58;81.73
37610;BME280;23457;51.966;8.230;2023-04-25T08:36:42;100533.16;;;8.38;80.11
37610;BME280;23457;51.966;8.230;2023-04-25T08:39:38;100541.59;;;8.68;80.94
37610;BME280;23457;51.966;8.230;2023-04-25T08:42:31;100540.72;;;8.68;79.47
37610;BME280;23457;51.966;8.230;2023-04-25T08:44:58;100546.19;;;8.81;76.41
37610;BME280;23457;51.966;8.230;2023-04-25T08:47:33;100550.41;;;8.37;75.18
37610;BME280;23457;51.966;8.230;2023-04-25T08:50:04;100547.28;;;8.52;73.58
37610;BME280;23457;51.966;8.230;2023-04-25T08:52:37;100555.38;;;8.67;75.07
37610;BME280;23457;51.966;8.230;2023-04-25T08:55:07;100554.03;;;8.84;79.42
37610;BME280;23457;51.966;8.230;2023-04-25T08:57:36;100556.06;;;9.01;76.85
37610;BME280;23457;51.966;8.230;2023-04-25T09:00:03;100559.91;;;8.77;73.32
37610;BME280;23457;51.966;8.230;2023-04-25T09:02:34;100562.81;;;8.92;73.21
37610;BME280;23457;51.966;8.230;2023-04-25T09:05:02;100568.66;;;8.82;70.28
37610;BME280;23457;51.966;8.230;2023-04-25T09:07:30;100578.75;;;9.12;70.01
37610;BME280;23457;51.966;8.230;2023-04-25T09:09:57;100593.78;;;8.46;69.42
37610;BME280;23457;51.966;8.230;2023-04-25T09:12:27;100580.78;;;8.83;69.62
37610;BME280;23457;51.966;8.230;2023-04-25T09:15:06;100595.53;;;8.87;67.98
37610;BME280;23457;51.966;8.230;2023-04-25T09:17:57;100591.47;;;8.98;66.03
37610;BME280;23457;51.966;8.230;2023-04-25T09:20:41;100588.28;;;9.13;65.86
37610;BME280;23457;51.966;8.230;2023-04-25T09:23:26;100594.66;;;8.87;62.98
37610;BME280;23457;51.966;8.230;2023-04-25T09:25:53;100585.22;;;9.81;63.40
37610;BME280;23457;51.966;8.230;2023-04-25T09:28:24;100592.00;;;9.73;64.88
37610;BME280;23457;51.966;8.230;2023-04-25T09:30:57;100593.75;;;10.23;60.00
37610;BME280;23457;51.966;8.230;2023-04-25T09:33:32;100587.94;;;9.88;61.42
37610;BME280;23457;51.966;8.230;2023-04-25T09:36:10;100592.81;;;9.70;59.88
37610;BME280;23457;51.966;8.230;2023-04-25T09:39:00;100597.63;;;9.50;60.90
37610;BME280;23457;51.966;8.230;2023-04-25T09:41:30;100600.13;;;9.44;60.68
37610;BME280;23457;51.966;8.230;2023-04-25T09:44:01;100600.16;;;9.02;61.70
37610;BME280;23457;51.966;8.230;2023-04-25T09:46:35;100601.09;;;9.06;62.89
37610;BME280;23457;51.966;8.230;2023-04-25T09:49:07;100606.44;;;9.13;63.24
37610;BME280;23457;51.966;8.230;2023-04-25T09:51:57;100611.81;;;8.80;61.99
37610;BME280;23457;51.966;8.230;2023-04-25T09:54:28;100608.00;;;9.05;63.36
37610;BME280;23457;51.966;8.230;2023-04-25T09:57:18;100611.44;;;8.63;62.16
37610;BME280;23457;51.966;8.230;2023-04-25T09:59:51;100614.91;;;9.05;61.69
37610;BME280;23457;51.966;8.230;2023-04-25T10:02:23;100620.75;;;8.94;61.54
37610;BME280;23457;51.966;8.230;2023-04-25T10:04:55;100626.31;;;9.13;64.04
37610;BME280;23457;51.966;8.230;2023-04-25T10:07:38;100621.41;;;9.26;61.82
37610;BME280;23457;51.966;8.230;2023-04-25T10:10:14;100625.94;;;9.38;64.23
37610;BME280;23457;51.966;8.230;2023-04-25T10:12:41;100626.09;;;9.46;63.80
37610;BME280;23457;51.966;8.230;2023-04-25T10:15:10;100624.56;;;9.55;64.04
37610;BME280;23457;51.966;8.230;2023-04-25T10:17:39;100631.50;;;9.56;65.82
37610;BME280;23457;51.966;8.230;2023-04-25T10:20:07;100624.88;;;9.27;57.47
37610;BME280;23457;51.966;8.230;2023-04-25T10:22:45;100632.94;;;9.00;58.72
37610;BME280;23457;51.966;8.230;2023-04-25T10:25:12;100628.47;;;9.33;59.79
37610;BME280;23457;51.966;8.230;2023-04-25T10:27:39;100626.38;;;9.16;59.13
37610;BME280;23457;51.966;8.230;2023-04-25T10:30:11;100634.00;;;9.52;58.58
37610;BME280;23457;51.966;8.230;2023-04-25T10:32:42;100633.75;;;9.85;59.79
37610;BME280;23457;51.966;8.230;2023-04-25T10:35:16;100628.06;;;10.07;58.15
37610;BME280;23457;51.966;8.230;2023-04-25T10:40:25;100626.59;;;10.21;56.92
37610;BME280;23457;51.966;8.230;2023-04-25T10:42:52;100624.50;;;10.55;55.02
37610;BME280;23457;51.966;8.230;2023-04-25T10:45:20;100630.28;;;10.96;52.78
37610;BME280;23457;51.966;8.230;2023-04-25T10:47:47;100634.72;;;10.43;53.78
37610;BME280;23457;51.966;8.230;2023-04-25T10:50:15;100641.28;;;10.78;53.40
37610;BME280;23457;51.966;8.230;2023-04-25T10:52:45;100635.13;;;10.70;54.63
37610;BME280;23457;51.966;8.230;2023-04-25T10:55:12;100635.84;;;10.07;54.01
37610;BME280;23457;51.966;8.230;2023-04-25T10:57:44;100643.31;;;10.37;55.29
37610;BME280;23457;51.966;8.230;2023-04-25T11:00:17;100640.66;;;10.34;51.73
37610;BME280;23457;51.966;8.230;2023-04-25T11:02:45;100645.03;;;9.87;52.69
37610;BME280;23457;51.966;8.230;2023-04-25T11:05:22;100642.75;;;10.05;53.74
37610;BME280;23457;51.966;8.230;2023-04-25T11:10:39;100637.63;;;10.64;56.36
37610;BME280;23457;51.966;8.230;2023-04-25T11:13:06;100652.75;;;10.92;55.11
37610;BME280;23457;51.966;8.230;2023-04-25T11:15:33;100653.28;;;10.14;52.48
37610;BME280;23457;51.966;8.230;2023-04-25T11:17:59;100656.41;;;9.95;50.58
37610;BME280;23457;51.966;8.230;2023-04-25T11:20:27;100658.44;;;10.11;52.08
37610;BME280;23457;51.966;8.230;2023-04-25T11:22:57;100657.81;;;10.23;53.74
37610;BME280;23457;51.966;8.230;2023-04-25T11:25:25;100652.63;;;10.24;53.56
37610;BME280;23457;51.966;8.230;2023-04-25T11:27:53;100651.16;;;10.41;53.93
37610;BME280;23457;51.966;8.230;2023-04-25T11:30:21;100655.94;;;10.17;55.91
37610;BME280;23457;51.966;8.230;2023-04-25T11:32:48;100657.84;;;10.24;54.91
37610;BME280;23457;51.966;8.230;2023-04-25T11:35:15;100639.97;;;10.46;54.74
37610;BME280;23457;51.966;8.230;2023-04-25T11:37:42;100663.81;;;10.20;53.32
37610;BME280;23457;51.966;8.230;2023-04-25T11:40:10;100658.53;;;10.17;53.37
37610;BME280;23457;51.966;8.230;2023-04-25T11:42:39;100666.72;;;10.40;54.74
37610;BME280;23457;51.966;8.230;2023-04-25T11:45:06;100666.66;;;10.35;54.68
37610;BME280;23457;51.966;8.230;2023-04-25T11:47:33;100676.22;;;10.39;54.22
37610;BME280;23457;51.966;8.230;2023-04-25T11:50:05;100674.69;;;10.01;55.87
37610;BME280;23457;51.966;8.230;2023-04-25T11:52:40;100676.28;;;9.93;53.44
37610;BME280;23457;51.966;8.230;2023-04-25T11:55:13;100674.28;;;10.82;51.49
37610;BME280;23457;51.966;8.230;2023-04-25T11:57:41;100661.69;;;11.09;51.66
37610;BME280;23457;51.966;8.230;2023-04-25T12:00:19;100675.44;;;11.72;53.65
37610;BME280;23457;51.966;8.230;2023-04-25T12:02:51;100666.63;;;10.93;54.74
37610;BME280;23457;51.966;8.230;2023-04-25T12:05:18;100675.56;;;10.53;52.79
37610;BME280;23457;51.966;8.230;2023-04-25T12:08:10;100680.31;;;10.80;53.88
37610;BME280;23457;51.966;8.230;2023-04-25T12:10:38;100693.63;;;10.44;53.65
37610;BME280;23457;51.966;8.230;2023-04-25T12:13:25;100690.03;;;10.35;54.37
37610;BME280;23457;51.966;8.230;2023-04-25T12:15:54;100694.63;;;10.53;53.88
37610;BME280;23457;51.966;8.230;2023-04-25T12:18:25;100683.75;;;10.77;52.77
37610;BME280;23457;51.966;8.230;2023-04-25T12:20:54;100692.78;;;11.00;52.70
37610;BME280;23457;51.966;8.230;2023-04-25T12:23:28;100695.59;;;11.19;51.07
37610;BME280;23457;51.966;8.230;2023-04-25T12:25:55;100690.16;;;10.43;52.25
37610;BME280;23457;51.966;8.230;2023-04-25T12:28:24;100685.66;;;10.90;54.89
37610;BME280;23457;51.966;8.230;2023-04-25T12:31:04;100676.63;;;11.27;53.53
37610;BME280;23457;51.966;8.230;2023-04-25T12:33:33;100690.81;;;11.54;54.70
37610;BME280;23457;51.966;8.230;2023-04-25T12:36:01;100682.59;;;11.91;52.92
37610;BME280;23457;51.966;8.230;2023-04-25T12:38:37;100683.69;;;12.16;55.80
37610;BME280;23457;51.966;8.230;2023-04-25T12:41:04;100683.66;;;12.10;52.47
37610;BME280;23457;51.966;8.230;2023-04-25T12:43:31;100681.41;;;12.54;53.37
37610;BME280;23457;51.966;8.230;2023-04-25T12:45:57;100679.38;;;12.19;51.92
37610;BME280;23457;51.966;8.230;2023-04-25T12:48:24;100669.94;;;12.28;48.97
37610;BME280;23457;51.966;8.230;2023-04-25T12:50:51;100676.88;;;12.27;50.11
37610;BME280;23457;51.966;8.230;2023-04-25T12:53:20;100684.69;;;12.27;48.69
37610;BME280;23457;51.966;8.230;2023-04-25T12:55:48;100685.84;;;12.69;50.11
37610;BME280;23457;51.966;8.230;2023-04-25T12:58:16;100690.41;;;11.90;48.85
37610;BME280;23457;51.966;8.230;2023-04-25T13:00:44;100694.00;;;12.05;47.87
37610;BME280;23457;51.966;8.230;2023-04-25T13:03:12;100695.75;;;12.02;47.09
37610;BME280;23457;51.966;8.230;2023-04-25T13:05:40;100700.50;;;11.62;48.97
37610;BME280;23457;51.966;8.230;2023-04-25T13:08:06;100693.25;;;12.14;47.74
37610;BME280;23457;51.966;8.230;2023-04-25T13:10:33;100701.41;;;11.67;46.97
37610;BME280;23457;51.966;8.230;2023-04-25T13:13:01;100710.25;;;11.10;52.34
37610;BME280;23457;51.966;8.230;2023-04-25T13:15:28;100721.81;;;10.72;55.62
37610;BME280;23457;51.966;8.230;2023-04-25T13:17:54;100727.28;;;10.36;55.40
37610;BME280;23457;51.966;8.230;2023-04-25T13:20:22;100722.50;;;9.67;57.70
37610;BME280;23457;51.966;8.230;2023-04-25T13:22:49;100723.63;;;9.80;59.11
37610;BME280;23457;51.966;8.230;2023-04-25T13:25:16;100727.41;;;9.53;65.15
37610;BME280;23457;51.966;8.230;2023-04-25T13:27:43;100710.47;;;9.70;70.51
37610;BME280;23457;51.966;8.230;2023-04-25T13:30:11;100718.44;;;9.80;67.25
37610;BME280;23457;51.966;8.230;2023-04-25T13:32:39;100712.66;;;10.43;67.85
37610;BME280;23457;51.966;8.230;2023-04-25T13:35:07;100714.50;;;10.48;59.81
37610;BME280;23457;51.966;8.230;2023-04-25T13:37:37;100719.56;;;10.40;57.38
37610;BME280;23457;51.966;8.230;2023-04-25T13:40:06;100711.97;;;10.53;57.20
37610;BME280;23457;51.966;8.230;2023-04-25T13:42:38;100718.88;;;11.08;53.82
37610;BME280;23457;51.966;8.230;2023-04-25T13:45:06;100716.88;;;10.90;54.45
37610;BME280;23457;51.966;8.230;2023-04-25T13:47:34;100714.84;;;10.71;54.62
37610;BME280;23457;51.966;8.230;2023-04-25T13:50:01;100722.59;;;10.68;54.06
37610;BME280;23457;51.966;8.230;2023-04-25T13:52:29;100720.75;;;10.59;56.18
37610;BME280;23457;51.966;8.230;2023-04-25T13:54:56;100717.66;;;10.85;57.38
37610;BME280;23457;51.966;8.230;2023-04-25T13:57:23;100723.25;;;10.55;55.96
37610;BME280;23457;51.966;8.230;2023-04-25T13:59:50;100716.69;;;10.78;57.55
37610;BME280;23457;51.966;8.230;2023-04-25T14:02:16;100721.84;;;10.76;56.90
37610;BME280;23457;51.966;8.230;2023-04-25T14:04:43;100717.56;;;10.24;56.89
37610;BME280;23457;51.966;8.230;2023-04-25T14:07:10;100735.16;;;10.40;57.97
37610;BME280;23457;51.966;8.230;2023-04-25T14:09:37;100738.50;;;9.88;58.03
37610;BME280;23457;51.966;8.230;2023-04-25T14:12:04;100743.34;;;9.70;61.50
37610;BME280;23457;51.966;8.230;2023-04-25T14:14:31;100748.63;;;9.76;70.37
37610;BME280;23457;51.966;8.230;2023-04-25T14:16:57;100750.31;;;9.32;80.81
37610;BME280;23457;51.966;8.230;2023-04-25T14:19:24;100749.63;;;9.02;87.77
37610;BME280;23457;51.966;8.230;2023-04-25T14:21:51;100768.13;;;8.79;89.44
37610;BME280;23457;51.966;8.230;2023-04-25T14:24:17;100759.53;;;8.80;89.58
37610;BME280;23457;51.966;8.230;2023-04-25T14:26:44;100764.78;;;8.83;88.88
37610;BME280;23457;51.966;8.230;2023-04-25T14:29:11;100766.09;;;8.66;90.17
37610;BME280;23457;51.966;8.230;2023-04-25T14:31:39;100770.03;;;8.52;91.43
37610;BME280;23457;51.966;8.230;2023-04-25T14:34:07;100775.41;;;8.26;89.65
37610;BME280;23457;51.966;8.230;2023-04-25T14:36:35;100762.06;;;8.43;89.07
37610;BME280;23457;51.966;8.230;2023-04-25T14:39:03;100762.94;;;8.79;87.26
37610;BME280;23457;51.966;8.230;2023-04-25T14:41:31;100756.09;;;8.81;86.03
37610;BME280;23457;51.966;8.230;2023-04-25T14:43:58;100756.47;;;8.96;86.29
37610;BME280;23457;51.966;8.230;2023-04-25T14:46:25;100751.63;;;8.76;85.31
37610;BME280;23457;51.966;8.230;2023-04-25T14:48:52;100753.06;;;9.01;83.39
37610;BME280;23457;51.966;8.230;2023-04-25T14:51:19;100757.63;;;8.73;87.77
37610;BME280;23457;51.966;8.230;2023-04-25T14:53:46;100753.66;;;8.89;85.03
37610;BME280;23457;51.966;8.230;2023-04-25T14:56:13;100749.13;;;8.79;83.84
37610;BME280;23457;51.966;8.230;2023-04-25T14:58:40;100759.44;;;9.15;83.12
37610;BME280;23457;51.966;8.230;2023-04-25T15:01:07;100755.03;;;9.09;79.39
37610;BME280;23457;51.966;8.230;2023-04-25T15:03:34;100759.28;;;9.46;75.04
37610;BME280;23457;51.966;8.230;2023-04-25T15:06:01;100761.00;;;9.88;76.79
37610;BME280;23457;51.966;8.230;2023-04-25T15:08:28;100765.47;;;9.95;73.88
37610;BME280;23457;51.966;8.230;2023-04-25T15:10:55;100764.53;;;10.36;69.46
37610;BME280;23457;51.966;8.230;2023-04-25T15:13:21;100762.13;;;11.01;67.50
37610;BME280;23457;51.966;8.230;2023-04-25T15:15:48;100760.75;;;11.28;65.85
37610;BME280;23457;51.966;8.230;2023-04-25T15:18:19;100768.38;;;11.14;62.31
37610;BME280;23457;51.966;8.230;2023-04-25T15:20:49;100784.88;;;10.15;62.37
37610;BME280;23457;51.966;8.230;2023-04-25T15:23:17;100794.53;;;9.79;64.75
37610;BME280;23457;51.966;8.230;2023-04-25T15:25:45;100795.03;;;9.59;67.21
37610;BME280;23457;51.966;8.230;2023-04-25T15:28:12;100803.25;;;9.03;72.34
37610;BME280;23457;51.966;8.230;2023-04-25T15:30:42;100805.25;;;8.78;72.13
37610;BME280;23457;51.966;8.230;2023-04-25T15:33:09;100819.78;;;8.72;75.82
37610;BME280;23457;51.966;8.230;2023-04-25T15:35:35;100817.28;;;8.10;86.92
37610;BME280;23457;51.966;8.230;2023-04-25T15:38:02;100816.25;;;7.75;91.77
37610;BME280;23457;51.966;8.230;2023-04-25T15:40:29;100817.56;;;7.91;93.09
37610;BME280;23457;51.966;8.230;2023-04-25T15:42:55;100808.06;;;7.90;97.09
37610;BME280;23457;51.966;8.230;2023-04-25T15:45:23;100804.94;;;8.32;96.11
37610;BME280;23457;51.966;8.230;2023-04-25T15:47:54;100820.84;;;7.85;95.71
37610;BME280;23457;51.966;8.230;2023-04-25T15:50:22;100819.19;;;7.58;98.83
37610;BME280;23457;51.966;8.230;2023-04-25T15:52:50;100815.25;;;8.00;100.00
37610;BME280;23457;51.966;8.230;2023-04-25T15:55:18;100809.53;;;8.12;100.00
37610;BME280;23457;51.966;8.230;2023-04-25T15:57:48;100817.41;;;8.16;96.34
37610;BME280;23457;51.966;8.230;2023-04-25T16:00:15;100806.88;;;8.09;96.44
37610;BME280;23457;51.966;8.230;2023-04-25T16:02:44;100802.22;;;8.28;94.86
37610;BME280;23457;51.966;8.230;2023-04-25T16:05:11;100797.38;;;8.74;96.83
37610;BME280;23457;51.966;8.230;2023-04-25T16:07:41;100800.84;;;9.10;92.08
37610;BME280;23457;51.966;8.230;2023-04-25T16:10:09;100794.75;;;8.72;91.96
37610;BME280;23457;51.966;8.230;2023-04-25T16:12:40;100794.84;;;9.13;88.62
37610;BME280;23457;51.966;8.230;2023-04-25T16:15:07;100792.28;;;9.14;91.81
37610;BME280;23457;51.966;8.230;2023-04-25T16:17:34;100793.78;;;9.42;89.42
37610;BME280;23457;51.966;8.230;2023-04-25T16:20:01;100791.38;;;9.12;89.66
37610;BME280;23457;51.966;8.230;2023-04-25T16:22:37;100796.66;;;9.56;85.77
37610;BME280;23457;51.966;8.230;2023-04-25T16:25:05;100793.00;;;9.46;86.68
37610;BME280;23457;51.966;8.230;2023-04-25T16:27:32;100792.50;;;10.06;91.01
37610;BME280;23457;51.966;8.230;2023-04-25T16:30:05;100806.59;;;9.77;81.14
37610;BME280;23457;51.966;8.230;2023-04-25T16:32:34;100801.81;;;9.15;79.98
37610;BME280;23457;51.966;8.230;2023-04-25T16:35:01;100801.41;;;8.97;80.27
37610;BME280;23457;51.966;8.230;2023-04-25T16:37:28;100800.00;;;9.49;81.83
37610;BME280;23457;51.966;8.230;2023-04-25T16:39:55;100803.59;;;9.18;77.27
37610;BME280;23457;51.966;8.230;2023-04-25T16:42:23;100795.72;;;8.77;80.25
37610;BME280;23457;51.966;8.230;2023-04-25T16:44:50;100802.63;;;8.77;80.37
37610;BME280;23457;51.966;8.230;2023-04-25T16:47:17;100801.28;;;8.92;76.70
37610;BME280;23457;51.966;8.230;2023-04-25T16:49:46;100803.59;;;9.18;74.44
37610;BME280;23457;51.966;8.230;2023-04-25T16:52:12;100810.47;;;9.16;70.08
37610;BME280;23457;51.966;8.230;2023-04-25T16:54:40;100815.16;;;8.94;70.60
37610;BME280;23457;51.966;8.230;2023-04-25T16:57:07;100809.88;;;8.91;69.80
37610;BME280;23457;51.966;8.230;2023-04-25T16:59:37;100815.81;;;9.22;67.44
37610;BME280;23457;51.966;8.230;2023-04-25T17:02:09;100816.31;;;9.07;68.05
37610;BME280;23457;51.966;8.230;2023-04-25T17:04:37;100825.06;;;9.12;65.15
37610;BME280;23457;51.966;8.230;2023-04-25T17:07:06;100825.72;;;9.40;63.71
37610;BME280;23457;51.966;8.230;2023-04-25T17:09:34;100822.97;;;9.73;63.08
37610;BME280;23457;51.966;8.230;2023-04-25T17:12:02;100820.97;;;9.59;59.70
37610;BME280;23457;51.966;8.230;2023-04-25T17:14:29;100825.66;;;9.37;60.85
37610;BME280;23457;51.966;8.230;2023-04-25T17:16:58;100835.00;;;9.30;61.95
37610;BME280;23457;51.966;8.230;2023-04-25T17:19:25;100826.44;;;9.32;61.17
37610;BME280;23457;51.966;8.230;2023-04-25T17:21:52;100823.69;;;9.26;62.27
37610;BME280;23457;51.966;8.230;2023-04-25T17:24:19;100832.88;;;9.14;60.28
37610;BME280;23457;51.966;8.230;2023-04-25T17:26:47;100838.41;;;8.91;58.75
37610;BME280;23457;51.966;8.230;2023-04-25T17:29:14;100837.25;;;8.80;59.69
37610;BME280;23457;51.966;8.230;2023-04-25T17:31:41;100844.91;;;8.76;59.57
37610;BME280;23457;51.966;8.230;2023-04-25T17:34:08;100839.78;;;8.77;60.42
37610;BME280;23457;51.966;8.230;2023-04-25T17:36:35;100847.56;;;8.44;61.57
37610;BME280;23457;51.966;8.230;2023-04-25T17:39:01;100856.75;;;8.33;62.54
37610;BME280;23457;51.966;8.230;2023-04-25T17:41:31;100850.81;;;8.37;63.48
37610;BME280;23457;51.966;8.230;2023-04-25T17:43:58;100861.81;;;8.60;64.09
37610;BME280;23457;51.966;8.230;2023-04-25T17:46:24;100866.34;;;8.37;65.73
37610;BME280;23457;51.966;8.230;2023-04-25T17:48:52;100858.94;;;8.19;67.46
37610;BME280;23457;51.966;8.230;2023-04-25T17:51:20;100864.13;;;8.51;66.09
37610;BME280;23457;51.966;8.230;2023-04-25T17:53:46;100866.16;;;8.31;67.75
37610;BME280;23457;51.966;8.230;2023-04-25T17:56:13;100857.69;;;8.37;65.67
37610;BME280;23457;51.966;8.230;2023-04-25T17:58:52;100872.47;;;8.11;65.72
37610;BME280;23457;51.966;8.230;2023-04-25T18:01:19;100883.38;;;7.99;68.13
37610;BME280;23457;51.966;8.230;2023-04-25T18:03:46;100891.78;;;7.92;69.73
37610;BME280;23457;51.966;8.230;2023-04-25T18:06:15;100898.72;;;7.65;68.06
37610;BME280;23457;51.966;8.230;2023-04-25T18:08:42;100888.38;;;7.65;70.49
37610;BME280;23457;51.966;8.230;2023-04-25T18:11:10;100895.16;;;7.61;72.13
37610;BME280;23457;51.966;8.230;2023-04-25T18:13:37;100892.13;;;7.46;75.99
37610;BME280;23457;51.966;8.230;2023-04-25T18:16:05;100896.25;;;7.41;76.94
37610;BME280;23457;51.966;8.230;2023-04-25T18:18:32;100900.50;;;7.12;79.52
37610;BME280;23457;51.966;8.230;2023-04-25T18:21:01;100894.72;;;7.47;79.64
37610;BME280;23457;51.966;8.230;2023-04-25T18:23:30;100891.59;;;7.29;79.34
37610;BME280;23457;51.966;8.230;2023-04-25T18:26:01;100899.19;;;7.51;79.99
37610;BME280;23457;51.966;8.230;2023-04-25T18:28:29;100904.81;;;7.67;78.41
37610;BME280;23457;51.966;8.230;2023-04-25T18:30:56;100905.34;;;7.28;78.66
37610;BME280;23457;51.966;8.230;2023-04-25T18:33:23;100905.06;;;7.46;78.25
37610;BME280;23457;51.966;8.230;2023-04-25T18:35:50;100914.06;;;7.59;77.13
37610;BME280;23457;51.966;8.230;2023-04-25T18:38:20;100914.34;;;7.41;77.68
37610;BME280;23457;51.966;8.230;2023-04-25T18:41:01;100922.22;;;7.17;77.66
37610;BME280;23457;51.966;8.230;2023-04-25T18:43:47;100923.97;;;7.45;76.67
37610;BME280;23457;51.966;8.230;2023-04-25T18:46:15;100923.84;;;7.15;78.75
37610;BME280;23457;51.966;8.230;2023-04-25T18:48:43;100934.81;;;7.33;78.40
37610;BME280;23457;51.966;8.230;2023-04-25T18:51:09;100940.09;;;7.11;78.40
37610;BME280;23457;51.966;8.230;2023-04-25T18:53:36;100945.16;;;7.33;79.33
37610;BME280;23457;51.966;8.230;2023-04-25T18:56:03;100942.66;;;7.11;78.70
37610;BME280;23457;51.966;8.230;2023-04-25T18:58:30;100945.16;;;7.33;78.46
37610;BME280;23457;51.966;8.230;2023-04-25T19:00:58;100954.53;;;7.04;80.11
37610;BME280;23457;51.966;8.230;2023-04-25T19:03:26;100948.56;;;7.32;79.95
37610;BME280;23457;51.966;8.230;2023-04-25T19:05:53;100953.69;;;7.31;79.84
37610;BME280;23457;51.966;8.230;2023-04-25T19:08:19;100960.03;;;7.15;80.57
37610;BME280;23457;51.966;8.230;2023-04-25T19:10:47;100956.97;;;6.76;82.39
37610;BME280;23457;51.966;8.230;2023-04-25T19:13:14;100970.91;;;7.05;82.21
37610;BME280;23457;51.966;8.230;2023-04-25T19:15:41;100979.53;;;7.05;83.25
37610;BME280;23457;51.966;8.230;2023-04-25T19:18:07;100978.13;;;6.90;83.94
37610;BME280;23457;51.966;8.230;2023-04-25T19:20:34;100973.75;;;6.63;85.83
37610;BME280;23457;51.966;8.230;2023-04-25T19:23:01;100975.75;;;6.70;86.77
37610;BME280;23457;51.966;8.230;2023-04-25T19:25:28;100985.00;;;6.89;85.04
37610;BME280;23457;51.966;8.230;2023-04-25T19:27:54;100982.75;;;6.74;85.99
37610;BME280;23457;51.966;8.230;2023-04-25T19:30:22;100974.31;;;6.55;87.21
37610;BME280;23457;51.966;8.230;2023-04-25T19:32:49;100975.94;;;6.53;87.95
37610;BME280;23457;51.966;8.230;2023-04-25T19:35:16;100974.19;;;6.75;86.55
37610;BME280;23457;51.966;8.230;2023-04-25T19:37:43;100986.84;;;6.68;86.14
37610;BME280;23457;51.966;8.230;2023-04-25T19:40:13;100978.25;;;6.45;87.94
37610;BME280;23457;51.966;8.230;2023-04-25T19:42:41;100983.50;;;6.48;88.03
37610;BME280;23457;51.966;8.230;2023-04-25T19:45:09;100985.84;;;6.64;87.36
37610;BME280;23457;51.966;8.230;2023-04-25T19:47:35;100979.63;;;6.83;86.22
37610;BME280;23457;51.966;8.230;2023-04-25T19:50:05;100984.06;;;6.63;87.85
37610;BME280;23457;51.966;8.230;2023-04-25T19:52:34;100986.44;;;6.57;88.81
37610;BME280;23457;51.966;8.230;2023-04-25T19:55:01;100986.66;;;6.63;88.96
37610;BME280;23457;51.966;8.230;2023-04-25T19:57:31;100990.00;;;6.61;89.59
37610;BME280;23457;51.966;8.230;2023-04-25T20:00:08;100991.69;;;6.60;91.04
37610;BME280;23457;51.966;8.230;2023-04-25T20:02:41;100988.69;;;6.72;90.37
37610;BME280;23457;51.966;8.230;2023-04-25T20:05:12;100997.41;;;6.52;90.64
37610;BME280;23457;51.966;8.230;2023-04-25T20:07:39;101001.38;;;6.66;91.29
37610;BME280;23457;51.966;8.230;2023-04-25T20:10:07;100997.53;;;6.78;90.97
37610;BME280;23457;51.966;8.230;2023-04-25T20:12:35;100999.81;;;6.69;90.91
37610;BME280;23457;51.966;8.230;2023-04-25T20:15:11;100996.00;;;6.83;89.48
37610;BME280;23457;51.966;8.230;2023-04-25T20:17:38;101005.41;;;6.81;89.42
37610;BME280;23457;51.966;8.230;2023-04-25T20:20:08;101004.09;;;6.69;90.35
37610;BME280;23457;51.966;8.230;2023-04-25T20:22:36;101004.91;;;6.68;90.78
37610;BME280;23457;51.966;8.230;2023-04-25T20:25:06;101009.00;;;6.63;91.52
37610;BME280;23457;51.966;8.230;2023-04-25T20:27:33;101009.25;;;6.69;91.23
37610;BME280;23457;51.966;8.230;2023-04-25T20:30:00;101008.69;;;6.54;90.91
37610;BME280;23457;51.966;8.230;2023-04-25T20:32:30;101004.72;;;6.39;91.48
37610;BME280;23457;51.966;8.230;2023-04-25T20:35:00;101011.63;;;6.40;91.76
37610;BME280;23457;51.966;8.230;2023-04-25T20:37:28;101010.38;;;6.07;93.50
37610;BME280;23457;51.966;8.230;2023-04-25T20:40:00;101015.59;;;6.31;92.33
37610;BME280;23457;51.966;8.230;2023-04-25T20:42:27;101008.00;;;6.35;92.25
37610;BME280;23457;51.966;8.230;2023-04-25T20:44:54;101023.28;;;6.29;91.67
37610;BME280;23457;51.966;8.230;2023-04-25T20:47:21;101017.34;;;6.32;91.73
37610;BME280;23457;51.966;8.230;2023-04-25T20:49:48;101017.00;;;6.46;91.34
37610;BME280;23457;51.966;8.230;2023-04-25T20:52:15;101015.88;;;6.16;93.58
37610;BME280;23457;51.966;8.230;2023-04-25T20:54:43;101012.19;;;6.32;93.11
37610;BME280;23457;51.966;8.230;2023-04-25T20:57:10;101019.13;;;6.57;91.51
37610;BME280;23457;51.966;8.230;2023-04-25T20:59:37;101020.47;;;6.69;91.42
37610;BME280;23457;51.966;8.230;2023-04-25T21:02:04;101012.84;;;6.50;91.42
37610;BME280;23457;51.966;8.230;2023-04-25T21:04:30;101022.81;;;6.63;90.44
37610;BME280;23457;51.966;8.230;2023-04-25T21:06:57;101023.31;;;6.53;91.31
37610;BME280;23457;51.966;8.230;2023-04-25T21:09:25;101020.34;;;6.66;90.98
37610;BME280;23457;51.966;8.230;2023-04-25T21:11:52;101023.75;;;6.65;91.15
37610;BME280;23457;51.966;8.230;2023-04-25T21:14:18;101025.28;;;6.60;91.39
37610;BME280;23457;51.966;8.230;2023-04-25T21:16:45;101020.44;;;6.45;91.43
37610;BME280;23457;51.966;8.230;2023-04-25T21:19:12;101023.50;;;6.59;91.61
37610;BME280;23457;51.966;8.230;2023-04-25T21:21:38;101032.34;;;6.42;92.06
37610;BME280;23457;51.966;8.230;2023-04-25T21:24:05;101010.75;;;6.40;92.31
37610;BME280;23457;51.966;8.230;2023-04-25T21:26:32;101020.84;;;6.34;91.88